Time;durP1;ratioP1;P1;durP2;ratioP2;P2;SDS_P1;SDS_P2;PMS_P1;PMS_P2;Temp;Humidity;BMP_temperature;BMP_pressure;BME280_temperature;BME280_humidity;BME280_pressure;Samples;Min_cycle;Max_cycle;Signal;HPM_P1;HPM_P2
2022/12/23 00:59:09;;;;;;;;;;;;;;;;;;5280434;23;19995;-90
2022/12/23 08:02:43;;;;;;;;;;;;;;;;;;5258178;23;19928;-92
2022/12/23 08:05:09;;;;;;;;;;;;;;;;;;4851470;29;20018;-92
2022/12/23 08:44:14;;;;;;;;;;;;;;;;;;5082039;23;19928;-96
2022/12/23 09:39:49;;;;;;;;;;;;;;;;;;5680659;23;19928;-95
2022/12/23 09:42:19;;;;;;;;;;;;;;;;;;4882665;29;19931;-95
2022/12/23 10:16:30;;;;;;;;;;;;;;;;;;5614390;23;19944;-94
2022/12/23 10:19:05;;;;;;;;;;;;;;;;;;4850872;29;20330;-92
2022/12/23 10:21:43;;;;;;;;;;;;;;;;;;4849187;29;19928;-95
2022/12/23 10:24:09;;;;;;;;;;;;;;;;;;4846038;29;20007;-93
2022/12/23 10:26:38;;;;;;;;;;;;;;;;;;4845902;29;19949;-95
2022/12/23 10:29:04;;;;;;;;;;;;;;;;;;4845769;29;19928;-95
2022/12/23 10:31:29;;;;;;;;;;;;;;;;;;4845995;29;19924;-95
2022/12/23 10:33:55;;;;;;;;;;;;;;;;;;4851923;29;19928;-93
2022/12/23 10:36:30;;;;;;;;;;;;;;;;;;4853398;29;19935;-95
2022/12/23 10:39:03;;;;;;;;;;;;;;;;;;4868894;29;19924;-94
2022/12/23 10:41:32;;;;;;;;;;;;;;;;;;4852067;29;19924;-94
2022/12/23 10:43:58;;;;;;;;;;;;;;;;;;4851697;29;19931;-94
2022/12/23 10:46:24;;;;;;;;;;;;;;;;;;4850665;29;20381;-94
2022/12/23 10:48:54;;;;;;;;;;;;;;;;;;4850168;29;19980;-94
2022/12/23 10:51:20;;;;;;;;;;;;;;;;;;4850286;29;20198;-94
2022/12/23 10:53:55;;;;;;;;;;;;;;;;;;4850149;29;19924;-94
2022/12/23 10:56:24;;;;;;;;;;;;;;;;;;4865907;29;20379;-94
2022/12/23 10:58:49;;;;;;;;;;;;;;;;;;4851600;29;19976;-94
2022/12/23 11:01:15;;;;;;;;;;;;;;;;;;4853755;29;19967;-94
2022/12/23 11:03:41;;;;;;;;;;;;;;;;;;4854847;29;19931;-94
2022/12/23 11:06:07;;;;;;;;;;;;;;;;;;4856265;29;19984;-95
2022/12/23 11:08:33;;;;;;;;;;;;;;;;;;4854198;29;19936;-94
2022/12/23 11:11:04;;;;;;;;;;;;;;;;;;4851768;29;19924;-95
2022/12/23 11:13:36;;;;;;;;;;;;;;;;;;4865509;29;19958;-94
2022/12/23 11:16:02;;;;;;;;;;;;;;;;;;4846363;29;20868;-94
2022/12/23 11:18:28;;;;;;;;;;;;;;;;;;4846326;29;19924;-95
2022/12/23 11:20:54;;;;;;;;;;;;;;;;;;4845600;29;20288;-95
2022/12/23 11:23:21;;;;;;;;;;;;;;;;;;4845166;29;20007;-95
2022/12/23 11:25:51;;;;;;;;;;;;;;;;;;4845334;29;19924;-95
2022/12/23 11:28:21;;;;;;;;;;;;;;;;;;4845476;29;19932;-95
2022/12/23 11:30:49;;;;;;;;;;;;;;;;;;4845237;29;19952;-95
2022/12/23 11:33:21;;;;;;;;;;;;;;;;;;4845034;29;20018;-95
2022/12/23 11:35:54;;;;;;;;;;;;;;;;;;4844815;29;19928;-95
2022/12/23 11:38:19;;;;;;;;;;;;;;;;;;4844994;29;20448;-94
2022/12/23 11:40:48;;;;;;;;;;;;;;;;;;4845255;29;20012;-95
2022/12/23 11:43:15;;;;;;;;;;;;;;;;;;4845342;29;19930;-94
2022/12/23 11:45:41;;;;;;;;;;;;;;;;;;4845097;29;20251;-95
2022/12/23 11:48:07;;;;;;;;;;;;;;;;;;4844566;29;19928;-94
2022/12/23 11:50:33;;;;;;;;;;;;;;;;;;4844448;29;20420;-95
2022/12/23 11:52:59;;;;;;;;;;;;;;;;;;4844868;29;19983;-95
2022/12/23 11:55:25;;;;;;;;;;;;;;;;;;4844547;29;19971;-94
2022/12/23 11:57:51;;;;;;;;;;;;;;;;;;4844477;29;19932;-95
2022/12/23 12:00:17;;;;;;;;;;;;;;;;;;4844428;29;19930;-95
2022/12/23 12:02:43;;;;;;;;;;;;;;;;;;4844750;29;19925;-95
2022/12/23 12:05:10;;;;;;;;;;;;;;;;;;4844667;29;19947;-94
2022/12/23 12:07:36;;;;;;;;;;;;;;;;;;4844427;29;19992;-94
2022/12/23 12:10:02;;;;;;;;;;;;;;;;;;4844587;29;19924;-94
2022/12/23 12:12:28;;;;;;;;;;;;;;;;;;4844237;29;19925;-94
2022/12/23 12:15:03;;;;;;;;;;;;;;;;;;4844749;29;20295;-94
2022/12/23 12:17:29;;;;;;;;;;;;;;;;;;4844601;29;19928;-94
2022/12/23 12:19:55;;;;;;;;;;;;;;;;;;4844327;29;20022;-95
2022/12/23 12:22:24;;;;;;;;;;;;;;;;;;4859550;29;19931;-93
2022/12/23 12:24:50;;;;;;;;;;;;;;;;;;4844227;29;20288;-94
2022/12/23 12:27:16;;;;;;;;;;;;;;;;;;4844489;29;19979;-94
2022/12/23 12:30:01;;;;;;;;;;;;;;;;;;4860998;29;19985;-93
2022/12/23 12:32:27;;;;;;;;;;;;;;;;;;4844485;29;19928;-94
2022/12/23 12:34:54;;;;;;;;;;;;;;;;;;4843511;29;19924;-94
2022/12/23 12:37:29;;;;;;;;;;;;;;;;;;4844486;29;20011;-95
2022/12/23 12:39:57;;;;;;;;;;;;;;;;;;4843869;29;19924;-95
2022/12/23 12:42:26;;;;;;;;;;;;;;;;;;4844597;29;19972;-94
2022/12/23 12:44:55;;;;;;;;;;;;;;;;;;4847618;29;19963;-95
2022/12/23 12:47:24;;;;;;;;;;;;;;;;;;4847439;29;19935;-94
2022/12/23 12:49:53;;;;;;;;;;;;;;;;;;4847636;29;19931;-94
2022/12/23 12:52:26;;;;;;;;;;;;;;;;;;4864235;29;19926;-94
2022/12/23 12:54:52;;;;;;;;;;;;;;;;;;4847618;29;20018;-95
2022/12/23 12:57:18;;;;;;;;;;;;;;;;;;4847302;29;19939;-95
2022/12/23 12:59:47;;;;;;;;;;;;;;;;;;4862372;29;19924;-94
2022/12/23 13:02:26;;;;;;;;;;;;;;;;;;4847064;29;20306;-95
2022/12/23 13:04:52;;;;;;;;;;;;;;;;;;4847166;29;19931;-95
2022/12/23 13:07:21;;;;;;;;;;;;;;;;;;4846550;29;19934;-95
2022/12/23 13:09:47;;;;;;;;;;;;;;;;;;4847473;29;20338;-94
2022/12/23 13:12:19;;;;;;;;;;;;;;;;;;4846986;29;19925;-95
2022/12/23 13:14:45;;;;;;;;;;;;;;;;;;4846994;29;19924;-94
2022/12/23 13:17:11;;;;;;;;;;;;;;;;;;4862564;29;19939;-95
2022/12/23 13:19:37;;;;;;;;;;;;;;;;;;4847119;29;19924;-95
2022/12/23 13:22:07;;;;;;;;;;;;;;;;;;4846832;29;19928;-94
2022/12/23 13:24:32;;;;;;;;;;;;;;;;;;4846645;29;19928;-95
2022/12/23 13:26:59;;;;;;;;;;;;;;;;;;4846904;29;20089;-94
2022/12/23 13:29:28;;;;;;;;;;;;;;;;;;4846674;29;19931;-94
2022/12/23 13:31:54;;;;;;;;;;;;;;;;;;4846901;29;19924;-94
2022/12/23 13:34:20;;;;;;;;;;;;;;;;;;4846724;29;19928;-94
2022/12/23 13:36:49;;;;;;;;;;;;;;;;;;4846885;29;19931;-93
2022/12/23 13:39:15;;;;;;;;;;;;;;;;;;4846559;29;19924;-95
2022/12/23 13:41:41;;;;;;;;;;;;;;;;;;4846108;29;19934;-94
2022/12/23 13:44:07;;;;;;;;;;;;;;;;;;4846782;29;19949;-94
2022/12/23 13:46:33;;;;;;;;;;;;;;;;;;4846720;29;20373;-93
2022/12/23 13:48:59;;;;;;;;;;;;;;;;;;4846331;29;19937;-94
2022/12/23 13:51:25;;;;;;;;;;;;;;;;;;4846140;29;19924;-94
2022/12/23 13:53:51;;;;;;;;;;;;;;;;;;4846379;29;19924;-93
2022/12/23 13:56:17;;;;;;;;;;;;;;;;;;4845779;29;19924;-94
2022/12/23 13:58:43;;;;;;;;;;;;;;;;;;4846451;29;19924;-93
2022/12/23 14:01:09;;;;;;;;;;;;;;;;;;4846153;29;19924;-94
2022/12/23 14:03:36;;;;;;;;;;;;;;;;;;4846211;29;19924;-94
2022/12/23 14:06:11;;;;;;;;;;;;;;;;;;4845911;29;19935;-92
2022/12/23 14:08:37;;;;;;;;;;;;;;;;;;4860826;29;19928;-94
2022/12/23 14:11:04;;;;;;;;;;;;;;;;;;4862489;29;20292;-93
2022/12/23 14:13:30;;;;;;;;;;;;;;;;;;4846133;29;19924;-94
2022/12/23 14:15:55;;;;;;;;;;;;;;;;;;4846095;29;20012;-94
2022/12/23 14:18:47;;;;;;;;;;;;;;;;;;4842887;29;20005;-94
2022/12/23 14:21:21;;;;;;;;;;;;;;;;;;4842485;29;19924;-94
2022/12/23 14:23:51;;;;;;;;;;;;;;;;;;4841888;29;19931;-94
2022/12/23 14:26:21;;;;;;;;;;;;;;;;;;4857619;29;19931;-94
2022/12/23 14:28:56;;;;;;;;;;;;;;;;;;4842917;29;20093;-94
2022/12/23 14:31:22;;;;;;;;;;;;;;;;;;4842474;29;19925;-95
2022/12/23 14:33:52;;;;;;;;;;;;;;;;;;4843997;29;19979;-94
2022/12/23 14:36:22;;;;;;;;;;;;;;;;;;4843795;29;19924;-94
2022/12/23 14:38:49;;;;;;;;;;;;;;;;;;4842639;29;19931;-94
2022/12/23 14:41:16;;;;;;;;;;;;;;;;;;4857047;29;19932;-94
2022/12/23 14:43:43;;;;;;;;;;;;;;;;;;4842150;29;19928;-95
2022/12/23 14:46:09;;;;;;;;;;;;;;;;;;4842775;29;19931;-94
2022/12/23 14:48:35;;;;;;;;;;;;;;;;;;4841828;29;19928;-93
2022/12/23 14:51:04;;;;;;;;;;;;;;;;;;4842165;29;20412;-95
2022/12/23 14:53:30;;;;;;;;;;;;;;;;;;4857466;29;20460;-94
2022/12/23 14:55:56;;;;;;;;;;;;;;;;;;4842135;29;20007;-94
2022/12/23 14:58:22;;;;;;;;;;;;;;;;;;4841537;29;19925;-94
2022/12/23 15:00:48;;;;;;;;;;;;;;;;;;4841795;29;19973;-94
2022/12/23 15:03:17;;;;;;;;;;;;;;;;;;4842108;29;19953;-93
2022/12/23 15:05:43;;;;;;;;;;;;;;;;;;4841893;29;19931;-94
2022/12/23 15:08:09;;;;;;;;;;;;;;;;;;4841450;29;20377;-94
2022/12/23 15:10:35;;;;;;;;;;;;;;;;;;4841299;29;19924;-94
2022/12/23 15:13:05;;;;;;;;;;;;;;;;;;4841344;29;19967;-94
2022/12/23 15:15:32;;;;;;;;;;;;;;;;;;4841771;29;19928;-93
2022/12/23 15:17:58;;;;;;;;;;;;;;;;;;4844083;29;19928;-94
2022/12/23 15:20:34;;;;;;;;;;;;;;;;;;4844234;29;20284;-93
2022/12/23 15:23:01;;;;;;;;;;;;;;;;;;4844240;29;19924;-94
2022/12/23 15:25:27;;;;;;;;;;;;;;;;;;4844597;29;20028;-94
2022/12/23 15:27:53;;;;;;;;;;;;;;;;;;4844539;29;19993;-94
2022/12/23 15:30:19;;;;;;;;;;;;;;;;;;4844148;29;20304;-94
2022/12/23 15:32:44;;;;;;;;;;;;;;;;;;4844124;29;20380;-94
2022/12/23 15:35:10;;;;;;;;;;;;;;;;;;4844115;29;19928;-94
2022/12/23 15:37:36;;;;;;;;;;;;;;;;;;4844181;29;19924;-93
2022/12/23 15:40:02;;;;;;;;;;;;;;;;;;4843952;29;20039;-94
2022/12/23 15:42:30;;;;;;;;;;;;;;;;;;4844173;29;19928;-93
2022/12/23 15:44:56;;;;;;;;;;;;;;;;;;4844275;29;20027;-93
2022/12/23 15:47:22;;;;;;;;;;;;;;;;;;4843501;29;19980;-93
2022/12/23 15:49:51;;;;;;;;;;;;;;;;;;4844184;29;20451;-93
2022/12/23 15:52:18;;;;;;;;;;;;;;;;;;4843889;29;19978;-94
2022/12/23 15:54:44;;;;;;;;;;;;;;;;;;4844109;29;19973;-92
2022/12/23 15:57:10;;;;;;;;;;;;;;;;;;4844048;29;19924;-93
2022/12/23 15:59:36;;;;;;;;;;;;;;;;;;4844138;29;19924;-94
2022/12/23 16:02:04;;;;;;;;;;;;;;;;;;4843727;29;19925;-92
2022/12/23 16:04:30;;;;;;;;;;;;;;;;;;4843803;29;19936;-94
2022/12/23 16:06:56;;;;;;;;;;;;;;;;;;4843723;29;19931;-93
2022/12/23 16:09:22;;;;;;;;;;;;;;;;;;4843766;29;19929;-93
2022/12/23 16:11:50;;;;;;;;;;;;;;;;;;4843730;29;20026;-93
2022/12/23 16:14:16;;;;;;;;;;;;;;;;;;4843570;29;20447;-93
2022/12/23 16:16:42;;;;;;;;;;;;;;;;;;4843546;29;20023;-93
2022/12/23 16:19:08;;;;;;;;;;;;;;;;;;4846365;29;19931;-93
2022/12/23 16:21:35;;;;;;;;;;;;;;;;;;4847320;29;19931;-93
2022/12/23 16:24:01;;;;;;;;;;;;;;;;;;4847271;29;19976;-93
2022/12/23 16:26:27;;;;;;;;;;;;;;;;;;4847368;29;19924;-93
2022/12/23 16:28:53;;;;;;;;;;;;;;;;;;4847130;29;19985;-93
2022/12/23 16:31:18;;;;;;;;;;;;;;;;;;4847116;29;19924;-93
2022/12/23 16:33:44;;;;;;;;;;;;;;;;;;4847088;29;19924;-93
2022/12/23 16:36:11;;;;;;;;;;;;;;;;;;4846786;29;19928;-94
2022/12/23 16:38:37;;;;;;;;;;;;;;;;;;4847201;29;19931;-93
2022/12/23 16:41:03;;;;;;;;;;;;;;;;;;4847190;29;19924;-93
2022/12/23 16:43:28;;;;;;;;;;;;;;;;;;4847308;29;20375;-93
2022/12/23 16:45:54;;;;;;;;;;;;;;;;;;4846889;29;20377;-93
2022/12/23 16:51:00;;;;;;;;;;;;;;;;;;5076829;23;20407;-95
2022/12/23 16:53:27;;;;;;;;;;;;;;;;;;4851722;29;19924;-96
2022/12/23 17:17:09;;;;;;;;;;;;;;;;;;4907424;24;19948;-96
2022/12/23 17:19:47;;;;;;;;;;;;;;;;;;;;;
2022/12/23 17:30:10;;;;;;;;;;;;;;;;;;5088264;23;19929;-95
2022/12/23 17:32:44;;;;;;;;;;;;;;;;;;4843778;29;19924;-96
2022/12/23 17:38:14;;;;;;;;;;;;;;;;;;4815077;29;19925;-95
2022/12/23 17:43:16;;;;;;;;;;;;;;;;;;5476024;23;19928;-93
2022/12/23 17:45:45;;;;;;;;;;;;;;;;;;4849129;29;19926;-95
2022/12/23 17:48:17;;;;;;;;;;;;;;;;;;4846140;29;19995;-94
2022/12/23 17:50:46;;;;;;;;;;;;;;;;;;4843137;29;20000;-95
2022/12/23 17:53:16;;;;;;;;;;;;;;;;;;4837179;29;19924;-96
2022/12/23 17:55:59;;;;;;;;;;;;;;;;;;;;;
2022/12/23 17:58:35;;;;;;;;;;;;;;;;;;4840800;29;19932;-96
2022/12/23 18:01:01;;;;;;;;;;;;;;;;;;4836479;29;19924;-94
2022/12/23 18:13:52;;;;;;;;;;;;;;;;;;5149204;23;20385;-94
2022/12/23 18:16:27;;;;;;;;;;;;;;;;;;4829069;29;20685;-94
2022/12/23 18:19:04;;;;;;;;;;;;;;;;;;;;;
2022/12/23 18:24:36;;;;;;;;;;;;;;;;;;4820199;29;19924;-94
2022/12/23 18:30:13;;;;;;;;;;;;;;;;;;4846279;29;19943;-94
2022/12/23 18:35:45;;;;;;;;;;;;;;;;;;4819189;29;19925;-93
2022/12/23 18:38:19;;;;;;;;;;;;;;;;;;4837969;29;19935;-94
2022/12/23 18:40:52;;;;;;;;;;;;;;;;;;4833021;29;19925;-95
2022/12/23 18:43:22;;;;;;;;;;;;;;;;;;4821203;29;20281;-93
2022/12/23 18:45:48;;;;;;;;;;;;;;;;;;4813173;29;19924;-93
2022/12/23 18:48:14;;;;;;;;;;;;;;;;;;4827058;29;20439;-92
2022/12/23 18:50:43;;;;;;;;;;;;;;;;;;4814632;29;20456;-93
2022/12/23 18:53:09;;;;;;;;;;;;;;;;;;4808695;29;19965;-91
2022/12/23 18:55:35;;;;;;;;;;;;;;;;;;4805671;29;19925;-92
2022/12/23 18:58:00;;;;;;;;;;;;;;;;;;4805678;29;20366;-93
2022/12/23 19:00:26;;;;;;;;;;;;;;;;;;4822302;29;20037;-92
2022/12/23 19:02:52;;;;;;;;;;;;;;;;;;4827004;29;19929;-93
2022/12/23 19:05:18;;;;;;;;;;;;;;;;;;4826694;29;20394;-92
2022/12/23 19:07:44;;;;;;;;;;;;;;;;;;4813992;29;19932;-93
2022/12/23 19:10:13;;;;;;;;;;;;;;;;;;4809118;29;20389;-93
2022/12/23 19:12:39;;;;;;;;;;;;;;;;;;4809260;29;19932;-93
2022/12/23 19:15:05;;;;;;;;;;;;;;;;;;4808932;29;19924;-93
2022/12/23 19:17:31;;;;;;;;;;;;;;;;;;4807318;29;19925;-93
2022/12/23 19:19:57;;;;;;;;;;;;;;;;;;4809734;29;19929;-92
2022/12/23 19:22:25;;;;;;;;;;;;;;;;;;4811562;29;19972;-94
2022/12/23 19:47:29;;;;;;;;;;;;;;;;;;4805972;29;19936;-94
2022/12/23 19:49:57;;;;;;;;;;;;;;;;;;4807146;29;19925;-94
2022/12/23 19:52:23;;;;;;;;;;;;;;;;;;4809450;29;20028;-90
2022/12/23 19:54:49;;;;;;;;;;;;;;;;;;4811887;29;19980;-92
2022/12/23 19:57:15;;;;;;;;;;;;;;;;;;4811088;29;20027;-92
2022/12/23 19:59:43;;;;;;;;;;;;;;;;;;4811815;29;19924;-92
2022/12/23 20:02:49;;;;;;;;;;;;;;;;;;5030685;23;19939;-93
2022/12/23 20:05:15;;;;;;;;;;;;;;;;;;4829701;29;19925;-94
2022/12/23 20:07:43;;;;;;;;;;;;;;;;;;4829642;29;19932;-93
2022/12/23 20:10:09;;;;;;;;;;;;;;;;;;4829628;29;19947;-94
2022/12/23 20:12:35;;;;;;;;;;;;;;;;;;4829828;29;19924;-93
2022/12/23 20:15:01;;;;;;;;;;;;;;;;;;4829393;29;19932;-93
2022/12/23 20:17:27;;;;;;;;;;;;;;;;;;4814668;29;19925;-92
2022/12/23 20:19:53;;;;;;;;;;;;;;;;;;4829966;29;20333;-92
2022/12/23 20:22:19;;;;;;;;;;;;;;;;;;4829338;29;19928;-93
2022/12/23 20:24:50;;;;;;;;;;;;;;;;;;4829579;29;19929;-92
2022/12/23 20:27:19;;;;;;;;;;;;;;;;;;4845024;29;19924;-92
2022/12/23 20:30:00;;;;;;;;;;;;;;;;;;4829515;29;19924;-94
2022/12/23 20:32:30;;;;;;;;;;;;;;;;;;4830359;29;20311;-93
2022/12/23 20:34:59;;;;;;;;;;;;;;;;;;4829895;29;20316;-92
2022/12/23 20:37:25;;;;;;;;;;;;;;;;;;4814407;29;19931;-90
2022/12/23 20:39:52;;;;;;;;;;;;;;;;;;4813453;29;20376;-93
2022/12/23 20:42:18;;;;;;;;;;;;;;;;;;4814320;29;19925;-91
2022/12/23 20:44:45;;;;;;;;;;;;;;;;;;4813151;29;19977;-92
2022/12/23 20:47:11;;;;;;;;;;;;;;;;;;4813990;29;19940;-94
2022/12/23 20:49:37;;;;;;;;;;;;;;;;;;4828876;29;20383;-93
2022/12/23 20:52:03;;;;;;;;;;;;;;;;;;4828922;29;19979;-93
2022/12/23 20:54:29;;;;;;;;;;;;;;;;;;4828291;29;19931;-92
2022/12/23 20:56:58;;;;;;;;;;;;;;;;;;4828893;29;20015;-93
2022/12/23 20:59:24;;;;;;;;;;;;;;;;;;4828434;29;20291;-93
2022/12/23 21:01:53;;;;;;;;;;;;;;;;;;4842199;29;19935;-92
2022/12/23 21:04:19;;;;;;;;;;;;;;;;;;4826316;29;19924;-93
2022/12/23 21:06:45;;;;;;;;;;;;;;;;;;4826811;29;20414;-93
2022/12/23 21:09:11;;;;;;;;;;;;;;;;;;4827770;29;19929;-92
2022/12/23 21:11:37;;;;;;;;;;;;;;;;;;4828135;29;20384;-93
2022/12/23 21:14:04;;;;;;;;;;;;;;;;;;4828198;29;20053;-93
2022/12/23 21:16:32;;;;;;;;;;;;;;;;;;4812743;29;19984;-93
2022/12/23 21:19:01;;;;;;;;;;;;;;;;;;4812365;29;19931;-92
2022/12/23 21:21:27;;;;;;;;;;;;;;;;;;4827223;29;19928;-94
2022/12/23 21:23:53;;;;;;;;;;;;;;;;;;4825919;29;20372;-92
2022/12/23 21:26:19;;;;;;;;;;;;;;;;;;4828474;29;19924;-93
2022/12/23 21:28:49;;;;;;;;;;;;;;;;;;4829442;29;19928;-93
2022/12/23 21:31:15;;;;;;;;;;;;;;;;;;4822144;29;19921;-94
2022/12/23 21:33:48;;;;;;;;;;;;;;;;;;4829653;29;19946;-92
2022/12/23 21:39:07;;;;;;;;;;;;;;;;;;4827530;29;20035;-93
2022/12/23 21:41:42;;;;;;;;;;;;;;;;;;4842991;29;19951;-94
2022/12/23 21:44:08;;;;;;;;;;;;;;;;;;4811647;29;19932;-93
2022/12/23 21:46:34;;;;;;;;;;;;;;;;;;4828151;29;20218;-93
2022/12/23 21:49:03;;;;;;;;;;;;;;;;;;4826669;29;19929;-93
2022/12/23 21:51:40;;;;;;;;;;;;;;;;;;4826646;29;19936;-94
2022/12/23 21:54:06;;;;;;;;;;;;;;;;;;4818117;29;19924;-91
2022/12/23 21:56:32;;;;;;;;;;;;;;;;;;4822749;29;20436;-89
2022/12/23 21:58:58;;;;;;;;;;;;;;;;;;4830732;29;19929;-93
2022/12/23 22:01:24;;;;;;;;;;;;;;;;;;4833171;29;19928;-92
2022/12/23 22:03:52;;;;;;;;;;;;;;;;;;4830442;29;19924;-90
2022/12/23 22:06:17;;;;;;;;;;;;;;;;;;4828533;29;20253;-91
2022/12/23 22:08:43;;;;;;;;;;;;;;;;;;4815007;29;19991;-89
2022/12/23 22:11:09;;;;;;;;;;;;;;;;;;4814238;29;19924;-90
2022/12/23 22:13:35;;;;;;;;;;;;;;;;;;4814308;29;19931;-90
2022/12/23 22:16:01;;;;;;;;;;;;;;;;;;4813973;29;19925;-90
2022/12/23 22:18:27;;;;;;;;;;;;;;;;;;4832353;29;20027;-91
2022/12/23 22:20:53;;;;;;;;;;;;;;;;;;4849930;29;19931;-90
2022/12/23 22:23:19;;;;;;;;;;;;;;;;;;4819784;29;19924;-91
2022/12/23 22:25:45;;;;;;;;;;;;;;;;;;4818931;29;20300;-91
2022/12/23 22:28:11;;;;;;;;;;;;;;;;;;4815991;29;19928;-90
2022/12/23 22:30:36;;;;;;;;;;;;;;;;;;4812840;29;19931;-90
2022/12/23 22:33:02;;;;;;;;;;;;;;;;;;4832908;29;19924;-90
2022/12/23 22:35:28;;;;;;;;;;;;;;;;;;4813892;29;19924;-90
2022/12/23 22:37:54;;;;;;;;;;;;;;;;;;4811135;29;20027;-90
2022/12/23 22:40:20;;;;;;;;;;;;;;;;;;4826545;29;19925;-90
2022/12/23 22:42:46;;;;;;;;;;;;;;;;;;4826271;29;20292;-90
2022/12/23 22:45:13;;;;;;;;;;;;;;;;;;4826325;29;19932;-90
2022/12/23 22:47:39;;;;;;;;;;;;;;;;;;4829988;29;19932;-91
2022/12/23 22:50:05;;;;;;;;;;;;;;;;;;4811119;29;20282;-90
2022/12/23 22:52:31;;;;;;;;;;;;;;;;;;4826363;29;19928;-90
2022/12/23 22:54:57;;;;;;;;;;;;;;;;;;4811529;29;19931;-91
2022/12/23 22:57:23;;;;;;;;;;;;;;;;;;4810833;29;19925;-91
2022/12/23 22:59:49;;;;;;;;;;;;;;;;;;4810778;29;19924;-90
2022/12/23 23:02:15;;;;;;;;;;;;;;;;;;4810748;29;19932;-91
2022/12/23 23:04:41;;;;;;;;;;;;;;;;;;4826440;29;20441;-89
2022/12/23 23:07:07;;;;;;;;;;;;;;;;;;4825725;29;20338;-90
2022/12/23 23:09:33;;;;;;;;;;;;;;;;;;4810761;29;19929;-90
2022/12/23 23:11:59;;;;;;;;;;;;;;;;;;4810730;29;20297;-91
2022/12/23 23:14:25;;;;;;;;;;;;;;;;;;4810849;29;20361;-90
2022/12/23 23:16:51;;;;;;;;;;;;;;;;;;4810413;29;19928;-91
2022/12/23 23:19:19;;;;;;;;;;;;;;;;;;4825840;29;20337;-90
2022/12/23 23:21:46;;;;;;;;;;;;;;;;;;4825812;29;19975;-90
2022/12/23 23:24:12;;;;;;;;;;;;;;;;;;4840393;29;20277;-90
2022/12/23 23:26:38;;;;;;;;;;;;;;;;;;4822076;29;19935;-90
2022/12/23 23:29:03;;;;;;;;;;;;;;;;;;4809812;29;20445;-90
2022/12/23 23:31:29;;;;;;;;;;;;;;;;;;4810796;29;19950;-89
2022/12/23 23:33:56;;;;;;;;;;;;;;;;;;4810491;29;19924;-89
2022/12/23 23:36:22;;;;;;;;;;;;;;;;;;4810269;29;19920;-90
2022/12/23 23:38:49;;;;;;;;;;;;;;;;;;4825383;29;19931;-90
2022/12/23 23:41:15;;;;;;;;;;;;;;;;;;4825512;29;20037;-91
2022/12/23 23:43:41;;;;;;;;;;;;;;;;;;4825780;29;19928;-90
2022/12/23 23:46:07;;;;;;;;;;;;;;;;;;4825811;29;19925;-91
2022/12/23 23:48:33;;;;;;;;;;;;;;;;;;4824870;29;20071;-90
2022/12/23 23:50:59;;;;;;;;;;;;;;;;;;4825743;29;20395;-90
2022/12/23 23:53:25;;;;;;;;;;;;;;;;;;4827049;29;19979;-91
2022/12/23 23:55:50;;;;;;;;;;;;;;;;;;4826131;29;19936;-91
2022/12/23 23:58:16;;;;;;;;;;;;;;;;;;4823438;29;19925;-91
